Time;durP1;ratioP1;P1;durP2;ratioP2;P2;SDS_P1;SDS_P2;PMS_P1;PMS_P2;Temp;Humidity;BMP_temperature;BMP_pressure;BME280_temperature;BME280_humidity;BME280_pressure;Samples;Min_cycle;Max_cycle;Signal;HPM_P1;HPM_P2
2022/06/24 00:03:08;;;;;;;0.95;0.80;;;19.30;97.70;;;;;;4733427;30;20083;-87
2022/06/24 00:05:52;;;;;;;;;;;;;;;;;;;;;
2022/06/24 00:08:25;;;;;;;1.10;0.70;;;19.40;97.30;;;;;;4724972;30;20111;-89
2022/06/24 00:10:57;;;;;;;1.08;0.60;;;19.40;98.10;;;;;;4700851;30;20081;-87
2022/06/24 00:13:39;;;;;;;1.95;1.00;;;19.40;97.60;;;;;;4700589;30;20752;-87
2022/06/24 00:16:26;;;;;;;3.03;0.80;;;19.40;97.30;;;;;;4715788;30;20123;-87
2022/06/24 00:19:31;;;;;;;1.63;0.90;;;19.40;97.10;;;;;;4692632;30;20143;-88
2022/06/24 00:22:17;;;;;;;0.60;0.60;;;19.30;99.30;;;;;;4668936;30;20069;-88
2022/06/24 00:25:23;;;;;;;1.13;1.00;;;19.30;98.70;;;;;;4647762;30;20496;-87
2022/06/24 00:28:09;;;;;;;1.10;0.82;;;19.30;98.90;;;;;;4646696;30;20069;-88
2022/06/24 00:30:40;;;;;;;2.65;1.10;;;19.20;98.60;;;;;;4648551;30;20153;-87
2022/06/24 00:33:51;;;;;;;1.55;1.08;;;19.10;98.60;;;;;;4657597;30;20058;-87
2022/06/24 00:36:34;;;;;;;2.03;1.30;;;19.00;99.50;;;;;;4610881;31;20090;-87
2022/06/24 00:39:14;;;;;;;;;;;;;;;;;;;;;
2022/06/24 00:41:49;;;;;;;1.75;0.90;;;18.80;99.90;;;;;;4636744;30;20480;-87
2022/06/24 00:44:33;;;;;;;1.02;0.80;;;18.70;99.80;;;;;;4638621;30;20051;-89
2022/06/24 00:47:01;;;;;;;1.00;0.90;;;18.70;99.90;;;;;;4631002;30;20059;-87
2022/06/24 00:49:32;;;;;;;1.73;0.95;;;18.60;99.90;;;;;;4679127;30;20057;-87
2022/06/24 00:52:07;;;;;;;1.40;0.90;;;18.50;99.90;;;;;;4674980;30;20607;-87
2022/06/24 00:54:37;;;;;;;1.77;1.10;;;18.40;99.90;;;;;;4675033;30;20489;-88
2022/06/24 00:57:06;;;;;;;1.20;1.00;;;18.40;99.90;;;;;;4672575;30;20050;-87
2022/06/24 00:59:40;;;;;;;1.95;0.88;;;18.40;99.90;;;;;;4658812;30;20094;-87
2022/06/24 01:02:16;;;;;;;1.50;0.90;;;18.40;99.90;;;;;;4656560;30;20184;-87
2022/06/24 01:04:43;;;;;;;1.38;0.90;;;18.30;99.90;;;;;;4664372;30;20070;-87
2022/06/24 01:07:16;;;;;;;1.23;1.00;;;18.30;99.90;;;;;;4674887;30;20089;-87
2022/06/24 01:09:44;;;;;;;3.08;0.90;;;18.20;99.90;;;;;;4664802;30;20052;-87
2022/06/24 01:12:17;;;;;;;2.08;0.98;;;18.30;99.90;;;;;;4672846;30;20058;-87
2022/06/24 01:14:55;;;;;;;1.52;0.85;;;18.30;99.90;;;;;;4689834;30;20507;-87
2022/06/24 01:17:31;;;;;;;;;;;;;;;;;;;;;
2022/06/24 01:20:09;;;;;;;2.17;0.90;;;18.30;99.90;;;;;;4685496;30;20065;-88
2022/06/24 01:22:41;;;;;;;0.95;0.82;;;18.10;99.90;;;;;;4686205;30;20061;-87
2022/06/24 01:25:09;;;;;;;1.90;1.08;;;18.10;99.90;;;;;;4701434;30;20037;-87
2022/06/24 01:27:35;;;;;;;1.00;0.82;;;18.10;99.90;;;;;;4685475;30;20061;-87
2022/06/24 01:30:02;;;;;;;0.90;0.80;;;18.00;99.90;;;;;;4700883;30;20053;-87
2022/06/24 01:32:30;;;;;;;1.30;0.90;;;18.00;99.90;;;;;;4689437;30;20055;-86
2022/06/24 01:35:00;;;;;;;2.90;0.90;;;18.00;99.90;;;;;;4688558;30;20111;-86
2022/06/24 01:37:32;;;;;;;1.45;0.93;;;17.90;99.90;;;;;;4682444;30;20488;-87
2022/06/24 01:39:57;;;;;;;2.67;1.00;;;17.90;99.90;;;;;;4673683;30;20095;-86
2022/06/24 01:42:26;;;;;;;1.73;1.20;;;17.80;99.90;;;;;;4671508;30;20077;-86
2022/06/24 01:44:58;;;;;;;1.92;1.00;;;17.80;99.90;;;;;;4686361;30;20140;-87
2022/06/24 01:47:26;;;;;;;1.55;0.90;;;17.80;99.90;;;;;;4685279;30;20412;-87
2022/06/24 01:49:52;;;;;;;1.83;0.90;;;17.80;99.90;;;;;;4685813;30;20072;-88
2022/06/24 01:52:17;;;;;;;1.23;0.90;;;17.80;99.90;;;;;;4685453;30;20057;-87
2022/06/24 01:54:43;;;;;;;1.83;0.90;;;18.50;99.90;;;;;;4700966;30;20132;-87
2022/06/24 01:57:11;;;;;;;1.95;0.85;;;17.70;99.90;;;;;;4692379;30;20049;-85
2022/06/24 01:59:39;;;;;;;1.38;0.65;;;17.70;99.90;;;;;;4689680;30;20174;-87
2022/06/24 02:02:08;;;;;;;0.90;0.60;;;17.80;99.90;;;;;;4687322;30;20551;-86
2022/06/24 02:04:34;;;;;;;1.00;0.70;;;17.80;99.90;;;;;;4689119;30;20085;-87
2022/06/24 02:07:00;;;;;;;1.00;0.82;;;17.70;99.90;;;;;;4718880;30;20393;-87
2022/06/24 02:09:26;;;;;;;0.60;0.50;;;17.80;99.90;;;;;;4702011;30;20163;-86
2022/06/24 02:14:38;;;;;;;1.33;0.80;;;17.80;99.90;;;;;;4708908;30;20045;-87
2022/06/24 02:17:04;;;;;;;1.42;1.15;;;17.70;99.90;;;;;;4688577;30;20045;-87
2022/06/24 02:19:33;;;;;;;1.20;1.05;;;17.80;99.90;;;;;;4709245;30;20388;-87
2022/06/24 02:21:58;;;;;;;5.65;1.00;;;17.60;99.90;;;;;;4702210;30;20049;-87
2022/06/24 02:24:27;;;;;;;1.95;0.98;;;17.70;99.90;;;;;;4718749;30;20045;-87
2022/06/24 02:26:55;;;;;;;1.80;0.90;;;17.60;99.90;;;;;;4702593;30;20126;-86
2022/06/24 02:29:20;;;;;;;1.77;1.20;;;17.60;99.90;;;;;;4702069;30;20049;-86
2022/06/24 02:31:46;;;;;;;1.10;0.77;;;17.60;99.90;;;;;;4702757;30;20119;-87
2022/06/24 02:34:12;;;;;;;0.93;0.80;;;17.60;99.90;;;;;;4718717;30;20045;-87
2022/06/24 02:36:40;;;;;;;1.10;0.80;;;17.60;99.90;;;;;;4724628;30;20106;-87
2022/06/24 02:39:06;;;;;;;1.08;0.85;;;17.50;99.90;;;;;;4699211;30;20049;-87
2022/06/24 02:41:32;;;;;;;1.35;0.90;;;17.50;99.90;;;;;;4701148;30;20057;-87
2022/06/24 02:44:00;;;;;;;1.65;1.00;;;17.50;99.90;;;;;;4687906;30;20503;-88
2022/06/24 02:46:26;;;;;;;1.25;0.82;;;17.50;99.90;;;;;;4701563;30;20092;-87
2022/06/24 02:48:58;;;;;;;1.10;0.90;;;17.40;99.90;;;;;;4701781;30;20053;-88
2022/06/24 02:51:26;;;;;;;1.48;1.10;;;17.40;99.90;;;;;;4717789;30;20061;-87
2022/06/24 02:53:51;;;;;;;1.40;1.20;;;17.40;99.90;;;;;;4708474;30;20403;-88
2022/06/24 02:56:17;;;;;;;2.40;1.42;;;17.40;99.90;;;;;;4701345;30;20049;-87
2022/06/24 02:58:48;;;;;;;1.45;0.95;;;17.30;99.90;;;;;;4723808;30;20064;-87
2022/06/24 03:01:16;;;;;;;1.92;1.10;;;17.30;99.90;;;;;;4702232;30;20095;-87
2022/06/24 03:03:42;;;;;;;1.55;1.15;;;17.30;99.90;;;;;;4701624;30;20144;-88
2022/06/24 03:06:08;;;;;;;1.30;0.85;;;17.30;99.90;;;;;;4701621;30;20140;-88
2022/06/24 03:08:37;;;;;;;2.40;1.10;;;17.20;99.90;;;;;;4717464;30;20141;-87
2022/06/24 03:11:03;;;;;;;1.20;0.90;;;17.30;99.90;;;;;;4717805;30;20481;-87
2022/06/24 03:13:29;;;;;;;1.52;1.10;;;17.30;99.90;;;;;;4708277;30;20045;-86
2022/06/24 03:15:54;;;;;;;1.77;1.02;;;17.30;99.90;;;;;;4710024;30;20045;-87
2022/06/24 03:18:20;;;;;;;1.55;0.98;;;17.20;99.90;;;;;;4717224;30;20048;-87
2022/06/24 03:20:48;;;;;;;1.35;1.00;;;17.30;99.90;;;;;;4718501;30;20053;-88
2022/06/24 03:23:17;;;;;;;1.23;0.85;;;17.20;99.90;;;;;;4701618;30;20052;-87
2022/06/24 03:25:43;;;;;;;1.52;1.00;;;17.30;99.90;;;;;;4700834;30;20061;-87
2022/06/24 03:28:11;;;;;;;1.20;0.98;;;17.20;99.90;;;;;;4701235;30;20049;-87
2022/06/24 03:30:37;;;;;;;1.50;1.00;;;17.20;99.90;;;;;;4717196;30;20065;-88
2022/06/24 03:33:03;;;;;;;1.25;0.90;;;17.50;99.90;;;;;;4723647;30;20056;-88
2022/06/24 03:35:31;;;;;;;2.20;1.10;;;17.50;99.90;;;;;;4701116;30;20107;-88
2022/06/24 03:37:59;;;;;;;1.45;1.00;;;17.30;99.90;;;;;;4716520;30;20052;-88
2022/06/24 03:40:25;;;;;;;2.20;1.00;;;17.30;99.90;;;;;;4701695;30;20057;-88
2022/06/24 03:42:51;;;;;;;2.00;1.20;;;17.30;99.90;;;;;;4701208;30;20088;-88
2022/06/24 03:45:17;;;;;;;1.38;1.10;;;17.30;99.90;;;;;;4700874;30;20609;-86
2022/06/24 03:47:43;;;;;;;1.58;1.00;;;17.40;99.90;;;;;;4700858;30;20085;-88
2022/06/24 03:50:09;;;;;;;1.30;0.85;;;17.40;99.90;;;;;;4701678;30;20045;-88
2022/06/24 03:52:34;;;;;;;1.83;0.90;;;17.50;99.90;;;;;;4700964;30;20542;-88
2022/06/24 03:55:00;;;;;;;1.13;0.90;;;17.60;99.90;;;;;;4701038;30;20561;-87
2022/06/24 03:57:26;;;;;;;1.15;0.90;;;17.70;99.90;;;;;;4701490;30;20060;-86
2022/06/24 03:59:52;;;;;;;1.10;1.00;;;17.70;99.90;;;;;;4716595;30;20045;-88
2022/06/24 04:02:18;;;;;;;2.17;1.05;;;17.70;99.90;;;;;;4700759;30;20088;-87
2022/06/24 04:04:47;;;;;;;2.10;0.90;;;17.80;99.90;;;;;;4700713;30;20507;-88
2022/06/24 04:07:13;;;;;;;1.40;0.98;;;17.80;99.90;;;;;;4707610;30;20088;-88
2022/06/24 04:09:39;;;;;;;3.63;1.23;;;17.80;99.90;;;;;;4701155;30;20045;-87
2022/06/24 04:12:18;;;;;;;2.17;1.10;;;17.80;99.90;;;;;;4723182;30;20527;-87
2022/06/24 04:17:36;;;;;;;1.20;0.90;;;17.90;99.90;;;;;;4717850;30;20195;-88
2022/06/24 04:20:01;;;;;;;1.55;0.95;;;17.90;99.90;;;;;;4686642;30;20518;-87
2022/06/24 04:22:29;;;;;;;1.95;0.80;;;17.90;99.90;;;;;;4700574;30;20057;-88
2022/06/24 04:24:57;;;;;;;1.92;1.00;;;18.10;99.90;;;;;;4700378;30;20048;-87
2022/06/24 04:27:25;;;;;;;1.17;0.70;;;18.00;99.90;;;;;;4706874;30;20059;-88
2022/06/24 04:30:04;;;;;;;1.35;1.08;;;18.10;99.90;;;;;;4707493;30;20061;-87
2022/06/24 04:32:30;;;;;;;1.42;1.00;;;18.10;99.90;;;;;;4695039;30;20056;-87
2022/06/24 04:34:56;;;;;;;0.90;0.80;;;18.20;99.90;;;;;;4716378;30;20053;-88
2022/06/24 04:37:22;;;;;;;1.05;0.65;;;18.30;99.90;;;;;;4718261;30;20129;-87
2022/06/24 04:39:52;;;;;;;0.73;0.70;;;18.30;99.90;;;;;;4719762;30;20147;-89
2022/06/24 04:42:18;;;;;;;2.53;0.95;;;18.40;99.90;;;;;;4690005;30;20064;-87
2022/06/24 04:44:50;;;;;;;1.17;0.98;;;18.50;99.90;;;;;;4719373;30;20092;-88
2022/06/24 04:47:15;;;;;;;1.20;0.98;;;18.60;99.90;;;;;;4703963;30;20124;-87
2022/06/24 04:49:41;;;;;;;2.17;0.90;;;18.60;99.90;;;;;;4723047;30;20055;-88
2022/06/24 04:52:09;;;;;;;1.30;1.00;;;18.70;99.90;;;;;;4707637;30;20117;-88
2022/06/24 04:54:46;;;;;;;1.38;0.90;;;18.80;99.90;;;;;;4714302;30;20052;-91
2022/06/24 04:57:12;;;;;;;1.75;1.08;;;18.90;99.90;;;;;;4706936;30;20572;-86
2022/06/24 05:03:19;;;;;;;1.65;1.10;;;19.00;99.90;;;;;;4716758;30;20060;-88
2022/06/24 05:05:45;;;;;;;1.50;1.10;;;19.10;99.90;;;;;;4714819;30;20057;-88
2022/06/24 05:08:10;;;;;;;1.65;1.08;;;19.10;99.90;;;;;;4708812;30;20072;-87
2022/06/24 05:10:36;;;;;;;1.70;0.85;;;19.20;99.90;;;;;;4720754;30;20104;-87
2022/06/24 05:13:02;;;;;;;1.52;0.90;;;19.30;99.90;;;;;;4704204;30;20048;-87
2022/06/24 05:15:28;;;;;;;1.10;0.90;;;19.40;99.90;;;;;;4719103;30;20045;-88
2022/06/24 05:17:54;;;;;;;1.45;1.15;;;19.50;99.90;;;;;;4719269;30;20068;-87
2022/06/24 05:20:20;;;;;;;1.48;0.98;;;19.60;99.90;;;;;;4714994;30;20058;-86
2022/06/24 05:22:46;;;;;;;1.42;1.10;;;19.70;99.90;;;;;;4701512;30;20053;-87
2022/06/24 05:25:11;;;;;;;1.65;1.08;;;19.70;99.90;;;;;;4709789;30;20041;-86
2022/06/24 05:27:37;;;;;;;1.52;0.82;;;19.80;99.90;;;;;;4703648;30;20060;-86
2022/06/24 05:30:04;;;;;;;1.27;1.00;;;19.90;99.90;;;;;;4718958;30;20061;-87
2022/06/24 05:32:29;;;;;;;2.17;1.00;;;20.00;99.90;;;;;;4710433;30;20148;-87
2022/06/24 05:34:56;;;;;;;1.30;1.00;;;20.10;99.90;;;;;;4709515;30;20135;-87
2022/06/24 05:37:22;;;;;;;1.83;1.10;;;20.20;99.90;;;;;;4719426;30;20041;-87
2022/06/24 05:39:48;;;;;;;3.33;1.20;;;20.20;99.90;;;;;;4703000;30;20063;-87
2022/06/24 05:42:14;;;;;;;1.60;1.20;;;20.30;99.90;;;;;;4710318;30;20057;-87
2022/06/24 05:44:39;;;;;;;1.50;0.90;;;20.30;99.90;;;;;;4695633;30;20415;-86
2022/06/24 05:47:05;;;;;;;2.15;1.08;;;20.40;99.90;;;;;;4703167;30;20061;-86
2022/06/24 05:49:31;;;;;;;2.45;1.60;;;20.40;99.90;;;;;;4702870;30;20488;-87
2022/06/24 05:51:57;;;;;;;1.98;1.20;;;20.40;99.90;;;;;;4708612;30;20053;-86
2022/06/24 05:57:14;;;;;;;3.63;1.10;;;20.40;99.90;;;;;;4642991;30;20058;-86
2022/06/24 05:59:40;;;;;;;1.20;0.90;;;20.40;99.90;;;;;;4649487;30;20069;-86
2022/06/24 06:02:06;;;;;;;1.98;1.17;;;20.60;99.90;;;;;;4649881;30;20070;-86
2022/06/24 06:04:32;;;;;;;2.20;1.00;;;20.80;99.90;;;;;;4644194;30;20508;-87
2022/06/24 06:06:58;;;;;;;2.95;1.45;;;20.90;99.90;;;;;;4637641;30;20506;-86
2022/06/24 06:09:24;;;;;;;2.33;1.48;;;21.10;99.90;;;;;;4658001;30;20066;-86
2022/06/24 06:11:50;;;;;;;2.55;2.35;;;21.10;99.90;;;;;;4646893;30;20043;-88
2022/06/24 06:14:16;;;;;;;6.57;2.10;;;21.20;99.90;;;;;;4633274;30;20071;-87
2022/06/24 06:16:47;;;;;;;4.13;2.35;;;21.20;99.90;;;;;;4646483;30;20092;-87
2022/06/24 06:19:16;;;;;;;7.05;2.72;;;21.20;99.90;;;;;;4646563;30;20497;-86
2022/06/24 06:21:42;;;;;;;6.97;3.50;;;21.20;99.90;;;;;;4654690;30;20062;-89
2022/06/24 06:24:19;;;;;;;6.25;2.50;;;21.30;99.90;;;;;;4643654;30;20064;-91
2022/06/24 06:26:48;;;;;;;2.83;2.00;;;21.20;99.90;;;;;;4655132;30;20066;-89
2022/06/24 06:33:30;;;;;;;4.20;2.38;;;20.90;99.90;;;;;;4665708;24;20046;-91
2022/06/24 06:42:14;;;;;;;;;;;20.30;99.90;;;;;;5013641;25;20062;-89
2022/06/24 06:48:48;;;;;;;5.20;3.13;;;20.10;99.90;;;;;;4704401;30;20117;-86
2022/06/24 06:51:14;;;;;;;6.68;4.07;;;20.20;99.90;;;;;;4685513;30;20132;-87
2022/06/24 06:53:40;;;;;;;5.88;3.92;;;20.10;99.90;;;;;;4691558;30;20053;-85
2022/06/24 06:56:06;;;;;;;8.75;3.70;;;20.10;99.90;;;;;;4701118;30;20086;-86
2022/06/24 06:58:33;;;;;;;5.20;3.42;;;19.90;99.90;;;;;;4693704;30;20045;-88
2022/06/24 07:00:59;;;;;;;6.75;2.92;;;19.90;99.90;;;;;;4708405;30;20045;-87
2022/06/24 07:03:29;;;;;;;5.40;2.88;;;19.90;99.90;;;;;;4702766;30;20053;-87
2022/06/24 07:05:55;;;;;;;5.57;3.05;;;19.80;99.90;;;;;;4701246;30;20488;-87
2022/06/24 07:08:23;;;;;;;7.80;3.47;;;20.00;99.90;;;;;;4685993;30;20060;-87
2022/06/24 07:10:57;;;;;;;7.18;3.67;;;19.80;99.90;;;;;;4707805;30;20045;-87
2022/06/24 07:13:25;;;;;;;7.25;4.40;;;19.90;99.90;;;;;;4692906;30;20052;-88
2022/06/24 07:15:52;;;;;;;6.15;3.53;;;19.90;99.90;;;;;;4691066;30;20061;-87
2022/06/24 07:18:20;;;;;;;4.28;2.42;;;19.80;99.90;;;;;;4699920;30;20605;-90
2022/06/24 07:20:57;;;;;;;3.00;1.75;;;19.80;99.90;;;;;;4706324;30;20053;-92
2022/06/24 07:24:23;;;;;;;3.75;2.10;;;19.70;99.90;;;;;;4699975;30;20057;-89
2022/06/24 07:27:13;;;;;;;3.83;2.03;;;19.60;99.90;;;;;;4659867;30;20195;-89
2022/06/24 07:37:08;;;;;;;5.00;2.38;;;19.60;99.90;;;;;;4647430;30;20101;-89
2022/06/24 07:48:52;;;;;;;5.93;2.38;;;20.10;99.90;;;;;;4700792;30;20105;-92
2022/06/24 07:59:08;;;;;;;7.18;1.90;;;20.00;99.90;;;;;;4944956;24;20133;-91
2022/06/24 08:01:34;;;;;;;4.57;1.35;;;20.10;99.90;;;;;;4737027;30;20521;-90
2022/06/24 08:04:00;;;;;;;2.80;0.95;;;20.10;99.90;;;;;;4737472;30;20056;-92
2022/06/24 08:06:26;;;;;;;4.05;1.27;;;20.20;99.90;;;;;;4737999;30;20487;-91
2022/06/24 08:08:52;;;;;;;3.00;0.98;;;20.30;99.90;;;;;;4751822;30;20544;-87
2022/06/24 08:11:21;;;;;;;2.38;1.10;;;20.30;99.90;;;;;;4736284;30;20048;-89
2022/06/24 08:13:47;;;;;;;3.65;1.10;;;20.30;99.90;;;;;;4751989;30;20052;-89
2022/06/24 08:16:15;;;;;;;1.85;0.98;;;20.20;99.90;;;;;;4736405;30;20063;-89
2022/06/24 08:18:49;;;;;;;2.63;1.02;;;20.30;99.90;;;;;;4736956;30;20112;-87
2022/06/24 08:21:18;;;;;;;7.15;1.92;;;20.30;99.90;;;;;;4736271;30;20044;-88
2022/06/24 08:23:45;;;;;;;8.00;2.20;;;20.40;99.90;;;;;;4752391;30;20395;-86
2022/06/24 08:26:21;;;;;;;5.85;1.83;;;20.40;99.90;;;;;;4736453;30;20067;-90
2022/06/24 08:28:46;;;;;;;6.60;1.55;;;20.40;99.90;;;;;;4735917;30;20049;-88
2022/06/24 08:31:27;;;;;;;4.82;2.45;;;20.40;99.90;;;;;;4736314;30;20054;-87
2022/06/24 08:33:53;;;;;;;5.50;1.65;;;20.50;99.90;;;;;;4736294;30;20135;-87
2022/06/24 08:36:27;;;;;;;7.15;1.20;;;20.50;99.90;;;;;;4735750;30;20138;-90
2022/06/24 08:38:56;;;;;;;5.03;1.40;;;20.50;99.90;;;;;;4736052;30;20087;-89
2022/06/24 08:41:43;;;;;;;;;;;;;;;;;;;;;
2022/06/24 08:46:57;;;;;;;3.75;0.70;;;20.30;99.90;;;;;;4722263;24;20151;-89
2022/06/24 08:49:22;;;;;;;2.17;1.00;;;20.30;99.90;;;;;;4713771;30;20144;-88
2022/06/24 08:51:50;;;;;;;3.40;1.10;;;20.30;99.90;;;;;;4701575;30;20053;-89
2022/06/24 08:54:18;;;;;;;2.53;0.90;;;20.40;99.90;;;;;;4701576;30;20068;-91
2022/06/24 08:56:50;;;;;;;6.25;1.58;;;20.30;99.90;;;;;;4701339;30;20103;-88
2022/06/24 08:59:18;;;;;;;2.38;0.90;;;20.30;99.90;;;;;;4701215;30;20105;-87
2022/06/24 09:01:45;;;;;;;4.18;0.80;;;20.40;99.90;;;;;;4716617;30;20053;-87
2022/06/24 09:04:10;;;;;;;3.80;1.10;;;20.30;99.90;;;;;;4683923;30;20046;-93
2022/06/24 09:06:41;;;;;;;1.77;0.77;;;20.30;99.90;;;;;;4683976;30;20058;-87
2022/06/24 09:09:21;;;;;;;3.00;1.38;;;20.40;99.90;;;;;;4683669;30;20050;-87
2022/06/24 09:11:58;;;;;;;3.13;1.05;;;20.40;99.90;;;;;;4683905;30;20159;-88
2022/06/24 09:25:20;;;;;;;;;;;;;;;;;;;;;
2022/06/24 09:27:58;;;;;;;2.15;0.93;;;20.70;99.90;;;;;;4741300;30;20439;-92
2022/06/24 09:30:34;;;;;;;0.60;0.60;;;20.80;99.90;;;;;;4743621;30;20052;-88
2022/06/24 09:33:01;;;;;;;2.80;0.88;;;20.80;99.90;;;;;;4741671;30;20165;-91
2022/06/24 09:35:27;;;;;;;2.75;1.15;;;20.90;99.90;;;;;;4766665;30;20051;-94
2022/06/24 09:37:53;;;;;;;3.60;1.00;;;21.00;99.90;;;;;;4766414;30;20055;-90
2022/06/24 09:40:21;;;;;;;2.35;1.08;;;20.90;99.90;;;;;;4754646;30;20078;-91
2022/06/24 09:43:07;;;;;;;1.92;0.98;;;20.80;99.90;;;;;;4754755;30;20098;-89
2022/06/24 09:51:57;;;;;;;3.92;1.00;;;20.60;99.90;;;;;;4677365;30;20049;-87
2022/06/24 09:54:23;;;;;;;1.70;0.80;;;20.60;99.90;;;;;;4626541;30;20542;-90
2022/06/24 09:56:50;;;;;;;2.40;0.90;;;20.60;99.90;;;;;;4942525;24;20048;-87
2022/06/24 10:08:15;;;;;;;;;;;20.40;99.90;;;;;;4053976;28;20510;-88
2022/06/24 10:11:05;;;;;;;4.55;1.17;;;20.30;99.90;;;;;;4736014;30;20075;-89
2022/06/24 10:13:33;;;;;;;2.03;1.13;;;20.30;99.90;;;;;;4754236;30;20056;-90
2022/06/24 10:16:01;;;;;;;1.70;0.90;;;20.30;99.90;;;;;;4745017;30;20122;-91
2022/06/24 10:21:01;;;;;;;1.90;0.85;;;20.40;99.90;;;;;;4753793;24;20110;-86
2022/06/24 10:23:53;;;;;;;1.58;0.77;;;20.40;99.90;;;;;;4753522;30;20510;-87
2022/06/24 10:26:51;;;;;;;1.25;0.85;;;20.50;99.90;;;;;;4754253;30;20044;-88
2022/06/24 10:29:51;;;;;;;3.85;1.02;;;20.50;99.90;;;;;;4732836;30;20048;-87
2022/06/24 10:32:16;;;;;;;4.05;1.23;;;20.60;99.90;;;;;;4754511;30;20048;-87
2022/06/24 10:35:20;;;;;;;3.05;1.13;;;20.50;99.90;;;;;;4738631;30;20067;-88
2022/06/24 10:37:53;;;;;;;2.65;1.00;;;20.40;99.90;;;;;;4699428;30;20151;-87
2022/06/24 10:40:24;;;;;;;2.60;1.10;;;20.30;99.90;;;;;;4691977;30;20064;-87
2022/06/24 10:43:08;;;;;;;3.55;1.10;;;20.30;99.90;;;;;;4690234;30;20500;-86
2022/06/24 10:45:43;;;;;;;2.38;1.05;;;20.30;99.90;;;;;;4694766;30;20061;-88
2022/06/24 10:48:32;;;;;;;2.00;1.33;;;20.20;99.90;;;;;;4719430;24;20616;-88
2022/06/24 10:51:18;;;;;;;1.63;1.00;;;20.20;99.90;;;;;;4714398;30;20063;-86
2022/06/24 10:54:02;;;;;;;;;;;20.10;99.90;;;;;;4715800;30;20122;-88
2022/06/24 10:56:45;;;;;;;3.00;0.90;;;20.00;99.90;;;;;;4699762;30;19934;-86
2022/06/24 10:59:13;;;;;;;2.15;1.08;;;20.10;99.90;;;;;;4724331;30;20139;-89
2022/06/24 11:01:43;;;;;;;1.55;0.80;;;20.00;99.90;;;;;;4701073;30;20458;-86
2022/06/24 11:04:15;;;;;;;1.42;0.80;;;19.90;99.90;;;;;;4716684;30;20459;-86
2022/06/24 11:07:14;;;;;;;3.22;1.30;;;20.00;99.90;;;;;;4718055;30;20060;-87
2022/06/24 11:09:39;;;;;;;5.70;1.00;;;19.90;99.90;;;;;;4726682;30;20070;-87
2022/06/24 11:12:28;;;;;;;3.53;1.27;;;19.90;99.90;;;;;;4700584;30;20049;-86
2022/06/24 11:14:54;;;;;;;2.50;0.80;;;19.80;99.90;;;;;;4719547;30;20136;-86
2022/06/24 11:17:24;;;;;;;1.45;0.75;;;19.70;99.90;;;;;;4699781;30;20139;-87
2022/06/24 11:19:50;;;;;;;1.58;0.60;;;19.60;99.90;;;;;;4711752;30;20053;-86
2022/06/24 11:22:16;;;;;;;0.50;0.40;;;19.40;99.90;;;;;;4701183;30;20057;-86
2022/06/24 11:24:52;;;;;;;1.10;0.50;;;19.30;99.90;;;;;;4717967;30;20088;-91
2022/06/24 11:27:47;;;;;;;0.88;0.57;;;19.20;99.90;;;;;;4701043;30;20049;-87
2022/06/24 11:30:13;;;;;;;1.23;0.63;;;19.10;99.90;;;;;;4655755;30;20112;-86
2022/06/24 11:32:57;;;;;;;1.20;0.60;;;19.10;99.90;;;;;;4708631;24;20056;-90
2022/06/24 11:35:23;;;;;;;0.80;0.57;;;19.00;99.90;;;;;;4767243;30;20055;-86
2022/06/24 11:37:49;;;;;;;1.00;0.43;;;18.80;99.90;;;;;;4754687;30;20077;-85
2022/06/24 11:40:20;;;;;;;1.63;0.73;;;18.70;99.90;;;;;;4748890;30;20108;-85
2022/06/24 11:42:46;;;;;;;1.00;0.60;;;18.70;99.90;;;;;;4763120;30;20068;-85
2022/06/24 11:45:12;;;;;;;1.20;0.50;;;18.60;99.90;;;;;;4758181;30;20047;-84
2022/06/24 11:47:38;;;;;;;2.35;0.60;;;18.60;99.90;;;;;;4762884;30;20044;-85
2022/06/24 11:50:04;;;;;;;0.65;0.50;;;18.40;99.90;;;;;;4760940;30;20052;-86
2022/06/24 11:52:48;;;;;;;1.20;0.50;;;18.50;99.90;;;;;;4748860;30;20565;-87
2022/06/24 11:55:28;;;;;;;1.38;0.60;;;18.40;99.90;;;;;;4768552;30;20202;-89
2022/06/24 11:58:07;;;;;;;1.83;0.73;;;18.30;99.90;;;;;;4744936;30;20131;-90
2022/06/24 12:01:04;;;;;;;1.25;0.43;;;18.30;99.90;;;;;;4747489;30;20059;-90
2022/06/24 12:03:30;;;;;;;1.10;0.60;;;18.30;99.90;;;;;;4755562;30;20082;-85
2022/06/24 12:05:56;;;;;;;2.78;0.60;;;18.20;99.90;;;;;;4748792;30;20084;-86
2022/06/24 12:08:24;;;;;;;1.00;0.50;;;18.30;99.90;;;;;;4749251;30;20146;-85
2022/06/24 12:10:51;;;;;;;1.27;0.65;;;18.30;99.90;;;;;;4757945;30;20391;-84
2022/06/24 12:13:29;;;;;;;0.73;0.50;;;18.20;99.90;;;;;;4752793;30;20494;-84
2022/06/24 12:15:56;;;;;;;0.82;0.50;;;18.30;99.90;;;;;;4749113;30;20136;-84
2022/06/24 12:18:24;;;;;;;0.70;0.40;;;18.30;99.90;;;;;;4754077;30;20048;-85
2022/06/24 12:21:07;;;;;;;1.38;0.50;;;18.30;99.90;;;;;;4754088;30;20567;-84
2022/06/24 12:23:42;;;;;;;0.90;0.57;;;18.40;99.90;;;;;;4754044;30;20054;-85
2022/06/24 12:26:21;;;;;;;0.60;0.50;;;18.40;99.90;;;;;;4739813;30;20083;-87
2022/06/24 12:29:05;;;;;;;2.42;0.60;;;18.50;99.90;;;;;;4761180;30;20391;-87
2022/06/24 12:31:32;;;;;;;1.25;0.50;;;18.60;99.90;;;;;;4767250;30;20079;-87
2022/06/24 12:33:58;;;;;;;0.73;0.55;;;18.60;99.90;;;;;;4746205;30;20055;-87
2022/06/24 12:36:35;;;;;;;0.50;0.40;;;18.60;99.90;;;;;;4752393;30;20083;-90
2022/06/24 12:39:08;;;;;;;0.60;0.50;;;18.70;99.90;;;;;;4756325;30;20036;-88
2022/06/24 12:41:46;;;;;;;1.45;0.63;;;18.60;99.90;;;;;;4767988;30;20144;-90
2022/06/24 12:44:12;;;;;;;0.68;0.47;;;18.60;99.90;;;;;;4763610;30;20088;-88
2022/06/24 12:50:35;;;;;;;1.30;0.60;;;18.70;99.90;;;;;;4766042;30;20047;-89
2022/06/24 12:52:34;;;;;;;2.15;0.60;;;18.70;99.90;;;;;;4761912;30;20074;-87
2022/06/24 12:55:00;;;;;;;1.35;0.60;;;18.70;99.90;;;;;;4755046;30;20119;-89
2022/06/24 12:57:26;;;;;;;1.13;0.60;;;18.80;99.90;;;;;;4752638;30;20054;-88
2022/06/24 12:59:51;;;;;;;0.90;0.50;;;18.80;99.90;;;;;;4764305;30;20044;-86
2022/06/24 13:02:17;;;;;;;1.73;0.57;;;18.90;99.90;;;;;;4771407;30;20040;-87
2022/06/24 13:04:43;;;;;;;1.33;0.57;;;19.00;99.90;;;;;;4771296;30;20063;-89
2022/06/24 13:07:09;;;;;;;0.60;0.50;;;19.20;99.90;;;;;;4771393;30;20504;-88
2022/06/24 13:09:34;;;;;;;1.83;0.70;;;19.30;99.90;;;;;;4755811;30;20079;-88
2022/06/24 13:12:00;;;;;;;2.05;1.00;;;19.40;99.90;;;;;;4755073;30;20052;-88
2022/06/24 13:14:26;;;;;;;1.20;0.65;;;19.60;99.90;;;;;;4771614;30;20047;-87
2022/06/24 13:16:52;;;;;;;1.33;0.75;;;19.70;99.90;;;;;;4740307;30;20055;-89
2022/06/24 13:19:18;;;;;;;1.98;0.75;;;19.80;99.90;;;;;;4771396;30;20046;-87
2022/06/24 13:21:43;;;;;;;2.10;0.95;;;19.90;99.90;;;;;;4754944;30;20063;-89
2022/06/24 13:24:09;;;;;;;1.98;0.70;;;19.80;99.90;;;;;;4771295;30;20048;-90
2022/06/24 13:26:35;;;;;;;2.25;0.70;;;19.90;99.90;;;;;;4771508;30;20490;-88
2022/06/24 13:29:01;;;;;;;1.73;0.60;;;20.00;99.90;;;;;;4739987;30;20060;-90
2022/06/24 13:31:27;;;;;;;1.45;1.10;;;20.10;99.90;;;;;;4770426;30;20441;-88
2022/06/24 13:33:52;;;;;;;1.80;0.85;;;20.10;99.90;;;;;;4754533;30;20414;-89
2022/06/24 13:36:18;;;;;;;1.10;0.60;;;20.20;99.90;;;;;;4771113;30;20051;-89
2022/06/24 13:38:44;;;;;;;2.45;0.60;;;20.30;99.90;;;;;;4754963;30;20127;-89
2022/06/24 13:41:10;;;;;;;1.35;0.95;;;20.30;99.90;;;;;;4770887;30;20140;-88
2022/06/24 13:43:36;;;;;;;1.23;0.80;;;20.20;99.90;;;;;;4771109;30;20052;-90
2022/06/24 13:46:02;;;;;;;2.95;0.90;;;20.40;99.90;;;;;;4770309;30;20127;-90
2022/06/24 13:48:28;;;;;;;2.45;0.80;;;20.40;99.90;;;;;;4771010;30;20135;-87
2022/06/24 13:50:53;;;;;;;2.75;0.77;;;20.50;99.90;;;;;;4754185;30;20482;-87
2022/06/24 13:53:19;;;;;;;1.17;0.60;;;20.70;99.90;;;;;;4755039;30;20383;-88
2022/06/24 13:55:45;;;;;;;0.93;0.65;;;20.80;99.90;;;;;;4770309;30;20417;-88
2022/06/24 13:58:11;;;;;;;1.60;1.08;;;21.10;99.90;;;;;;4753391;30;20117;-88
2022/06/24 14:00:37;;;;;;;1.45;0.93;;;21.20;99.90;;;;;;4770703;30;20094;-88
2022/06/24 14:03:03;;;;;;;1.75;1.10;;;21.30;99.90;;;;;;4753537;30;20083;-88
2022/06/24 14:05:29;;;;;;;1.75;1.15;;;21.40;99.90;;;;;;4770654;30;20055;-89
2022/06/24 14:07:54;;;;;;;2.08;0.93;;;21.50;99.90;;;;;;4747581;30;20062;-88
2022/06/24 14:10:20;;;;;;;2.10;1.23;;;21.60;99.90;;;;;;4740170;30;20126;-88
2022/06/24 14:12:46;;;;;;;2.58;1.95;;;21.80;99.90;;;;;;4763847;30;20110;-87
2022/06/24 14:15:13;;;;;;;1.67;1.25;;;21.90;99.90;;;;;;4753590;30;20086;-89
2022/06/24 14:17:39;;;;;;;2.38;1.35;;;22.20;99.90;;;;;;4748099;30;20059;-89
2022/06/24 14:20:05;;;;;;;2.40;1.42;;;22.40;99.90;;;;;;4752748;30;20479;-89
2022/06/24 14:22:31;;;;;;;1.95;1.20;;;22.60;99.90;;;;;;4754250;30;20052;-89
2022/06/24 14:24:58;;;;;;;2.83;1.50;;;22.80;99.90;;;;;;4770148;30;20054;-88
2022/06/24 14:27:23;;;;;;;3.25;1.90;;;23.00;99.90;;;;;;4733317;30;20116;-88
2022/06/24 14:29:49;;;;;;;4.13;1.80;;;23.20;99.90;;;;;;4754382;30;20516;-88
2022/06/24 14:32:15;;;;;;;3.88;2.13;;;23.40;99.90;;;;;;4768962;30;20130;-88
2022/06/24 14:34:41;;;;;;;4.43;1.85;;;23.30;99.90;;;;;;4770171;30;20197;-86
2022/06/24 14:42:35;;;;;;;4.57;2.15;;;24.10;99.90;;;;;;4763796;30;20494;-89